Time;durP1;ratioP1;P1;durP2;ratioP2;P2;SDS_P1;SDS_P2;PMS_P1;PMS_P2;Temp;Humidity;BMP_temperature;BMP_pressure;BME280_temperature;BME280_humidity;BME280_pressure;Samples;Min_cycle;Max_cycle;Signal;HPM_P1;HPM_P2
2023/09/13 00:00:20;;;;;;;11.30;9.00;;;;;;;18.09;58.07;99903.96;106017;1252;60409;-76
2023/09/13 00:02:47;;;;;;;12.50;9.10;;;;;;;18.07;57.94;99902.18;106046;1255;73839;-77
2023/09/13 00:05:14;;;;;;;10.70;8.20;;;;;;;18.06;57.92;99900.92;105957;1251;69291;-77
2023/09/13 00:07:41;;;;;;;12.40;8.80;;;;;;;18.05;57.78;99904.08;106048;1251;72561;-77
2023/09/13 00:10:08;;;;;;;11.00;8.40;;;;;;;18.04;57.65;99900.25;105995;1251;60919;-77
2023/09/13 00:12:34;;;;;;;13.30;9.10;;;;;;;18.03;57.76;99901.99;106065;1253;60479;-78
2023/09/13 00:15:01;;;;;;;13.00;9.40;;;;;;;18.03;57.75;99902.20;106124;1251;60349;-78
2023/09/13 00:17:27;;;;;;;12.40;8.70;;;;;;;18.02;57.71;99901.80;106135;1251;69131;-82
2023/09/13 00:19:58;;;;;;;11.10;9.40;;;;;;;18.02;57.57;99899.36;106705;1253;72899;-82
2023/09/13 00:22:26;;;;;;;14.50;9.80;;;;;;;18.01;57.47;99898.20;106206;1251;60434;-80
2023/09/13 00:24:52;;;;;;;10.20;8.50;;;;;;;18.01;57.55;99897.17;106083;1252;60585;-81
2023/09/13 00:27:19;;;;;;;10.10;8.80;;;;;;;17.99;57.45;99896.48;106096;1254;73651;-82
2023/09/13 00:29:46;;;;;;;11.40;8.90;;;;;;;17.98;57.46;99898.67;106097;1252;70535;-80
2023/09/13 00:32:12;;;;;;;12.90;9.40;;;;;;;17.96;57.37;99901.52;105979;1256;72769;-80
2023/09/13 00:34:39;;;;;;;14.80;8.50;;;;;;;17.94;57.28;99899.30;106203;1251;60375;-78
2023/09/13 00:37:06;;;;;;;11.80;9.40;;;;;;;17.94;57.22;99898.89;106391;1255;60415;-80
2023/09/13 00:39:32;;;;;;;11.70;9.00;;;;;;;17.93;57.18;99898.94;107005;1252;73539;-81
2023/09/13 00:41:59;;;;;;;11.60;9.30;;;;;;;17.93;57.21;99899.52;109385;1251;68109;-81
2023/09/13 00:44:25;;;;;;;12.30;8.80;;;;;;;17.94;57.01;99898.30;109439;1251;59493;-79
2023/09/13 00:46:53;;;;;;;14.50;9.90;;;;;;;17.96;56.98;99894.34;107399;1254;60233;-78
2023/09/13 00:49:20;;;;;;;11.40;8.70;;;;;;;17.96;56.92;99894.09;107727;1251;60339;-81
2023/09/13 00:51:49;;;;;;;11.60;8.70;;;;;;;17.96;56.86;99892.06;107121;1256;73723;-80
2023/09/13 00:54:15;;;;;;;9.20;7.90;;;;;;;17.96;56.77;99891.40;106724;1254;70290;-80
2023/09/13 00:56:42;;;;;;;10.00;8.80;;;;;;;17.96;56.83;99890.33;106253;1257;73028;-77
2023/09/13 00:59:09;;;;;;;14.50;9.00;;;;;;;17.94;56.87;99888.18;106058;1251;60468;-82
2023/09/13 01:01:36;;;;;;;11.20;8.50;;;;;;;17.93;56.98;99886.49;106197;1251;60454;-80
2023/09/13 01:04:03;;;;;;;12.40;8.80;;;;;;;17.91;57.08;99890.02;105994;1251;72393;-80
2023/09/13 01:06:30;;;;;;;13.70;9.30;;;;;;;17.87;57.34;99887.71;105969;1257;69318;-79
2023/09/13 01:08:57;;;;;;;11.60;8.80;;;;;;;17.84;57.35;99888.84;105962;1257;72668;-79
2023/09/13 01:11:24;;;;;;;11.30;8.60;;;;;;;17.82;57.40;99886.21;106008;1259;60824;-81
2023/09/13 01:13:50;;;;;;;11.00;8.40;;;;;;;17.80;57.35;99884.56;105860;1251;60385;-81
2023/09/13 01:16:36;;;;;;;10.20;8.40;;;;;;;17.78;57.42;99880.60;105927;1253;60872;-79
2023/09/13 01:19:32;;;;;;;12.80;8.80;;;;;;;17.74;57.55;99878.80;106139;1251;70197;-80
2023/09/13 01:22:04;;;;;;;11.00;8.30;;;;;;;17.73;57.68;99880.26;106217;1251;72921;-80
2023/09/13 01:24:39;;;;;;;11.10;8.50;;;;;;;17.69;57.73;99874.98;106288;1255;60386;-82
2023/09/13 01:27:12;;;;;;;12.80;8.40;;;;;;;17.66;57.90;99876.10;106450;1253;60344;-77
2023/09/13 01:29:38;;;;;;;10.90;8.40;;;;;;;17.64;58.03;99872.84;107089;1255;73680;-80
2023/09/13 01:32:05;;;;;;;9.80;7.90;;;;;;;17.62;58.02;99871.80;106125;1258;70383;-80
2023/09/13 01:34:32;;;;;;;10.10;8.70;;;;;;;17.61;58.13;99876.30;106030;1251;72996;-77
2023/09/13 01:36:59;;;;;;;9.80;8.20;;;;;;;17.59;58.17;99874.09;106023;1251;60422;-76
2023/09/13 01:39:26;;;;;;;10.90;9.00;;;;;;;17.57;58.20;99872.56;106122;1251;60597;-75
2023/09/13 01:42:04;;;;;;;11.60;9.10;;;;;;;17.55;58.18;99869.64;105909;1252;60505;-78
2023/09/13 01:44:32;;;;;;;10.70;8.00;;;;;;;17.52;58.22;99869.11;106428;1251;70255;-78
2023/09/13 01:46:59;;;;;;;10.80;8.10;;;;;;;17.51;58.22;99871.01;106714;1250;72543;-75
2023/09/13 01:49:25;;;;;;;13.60;8.20;;;;;;;17.49;58.41;99867.29;108582;1250;59139;-77
2023/09/13 01:51:52;;;;;;;11.70;9.20;;;;;;;17.48;58.55;99870.32;107868;1250;60425;-75
2023/09/13 01:54:19;;;;;;;14.10;9.70;;;;;;;17.45;58.72;99865.11;107831;1250;59277;-78
2023/09/13 01:56:45;;;;;;;12.20;8.30;;;;;;;17.45;58.61;99867.76;109031;1250;70879;-77
2023/09/13 01:59:12;;;;;;;11.20;9.00;;;;;;;17.44;58.64;99868.73;107736;1250;72696;-78
2023/09/13 02:01:38;;;;;;;13.30;8.70;;;;;;;17.43;58.67;99867.10;106185;1253;60549;-77
2023/09/13 02:04:06;;;;;;;12.90;8.40;;;;;;;17.42;58.62;99864.35;106449;1250;60409;-79
2023/09/13 02:06:33;;;;;;;12.30;9.00;;;;;;;17.40;58.63;99868.35;106074;1251;73920;-77
2023/09/13 02:09:00;;;;;;;10.90;8.30;;;;;;;17.39;58.61;99869.76;106276;1256;68741;-80
2023/09/13 02:11:26;;;;;;;11.80;8.60;;;;;;;17.37;58.64;99868.77;108020;1250;60389;-80
2023/09/13 02:13:53;;;;;;;11.00;8.60;;;;;;;17.37;58.65;99870.63;107563;1253;60352;-78
2023/09/13 02:16:21;;;;;;;12.40;8.70;;;;;;;17.36;58.58;99870.74;106659;1251;60605;-79
2023/09/13 02:18:48;;;;;;;10.70;8.90;;;;;;;17.34;58.67;99872.95;107441;1254;73639;-79
2023/09/13 02:21:15;;;;;;;11.80;8.70;;;;;;;17.33;58.59;99870.97;107590;1254;70106;-82
2023/09/13 02:23:43;;;;;;;10.60;8.80;;;;;;;17.32;58.60;99872.52;106673;1251;72711;-80
2023/09/13 02:26:23;;;;;;;12.50;8.90;;;;;;;17.31;58.62;99871.05;106618;1254;60564;-80
2023/09/13 02:28:51;;;;;;;10.90;9.40;;;;;;;17.30;58.53;99870.30;106294;1256;60470;-80
2023/09/13 02:31:25;;;;;;;9.60;8.50;;;;;;;17.29;58.61;99872.23;106095;1250;73941;-78
2023/09/13 02:33:53;;;;;;;11.10;8.60;;;;;;;17.27;58.48;99870.80;106211;1250;70313;-80
2023/09/13 02:36:20;;;;;;;11.80;8.80;;;;;;;17.25;58.61;99867.71;106346;1253;72561;-79
2023/09/13 02:38:47;;;;;;;16.00;9.20;;;;;;;17.24;58.72;99867.17;106542;1251;60421;-82
2023/09/13 02:41:13;;;;;;;10.30;9.10;;;;;;;17.23;58.50;99864.81;106176;1251;60527;-81
2023/09/13 02:43:40;;;;;;;12.30;8.80;;;;;;;17.21;58.40;99866.88;106055;1251;73855;-81
2023/09/13 02:46:08;;;;;;;15.40;8.90;;;;;;;17.20;58.39;99870.11;106730;1250;70297;-80
2023/09/13 02:48:36;;;;;;;13.20;9.10;;;;;;;17.18;58.54;99871.39;107892;1250;73126;-80
2023/09/13 02:51:02;;;;;;;10.30;9.10;;;;;;;17.17;58.62;99870.31;106667;1256;60467;-82
2023/09/13 02:53:30;;;;;;;13.20;10.20;;;;;;;17.15;58.79;99870.70;106971;1251;60440;-82
2023/09/13 02:56:05;;;;;;;14.00;9.00;;;;;;;17.13;58.83;99871.02;108827;1250;72697;-82
2023/09/13 02:58:32;;;;;;;10.70;9.20;;;;;;;17.12;58.92;99874.58;109151;1250;68997;-79
2023/09/13 03:01:03;;;;;;;11.80;9.70;;;;;;;17.10;59.10;99874.42;108245;1250;71345;-78
2023/09/13 03:03:31;;;;;;;13.00;10.10;;;;;;;17.08;59.34;99874.70;106483;1250;60371;-80
2023/09/13 03:06:13;;;;;;;15.40;10.90;;;;;;;17.05;59.42;99876.16;106530;1253;60493;-81
2023/09/13 03:08:40;;;;;;;12.80;10.00;;;;;;;17.01;59.72;99876.20;106339;1251;73820;-82
2023/09/13 03:11:16;;;;;;;12.40;10.70;;;;;;;16.98;59.83;99875.52;106302;1251;71019;-81
2023/09/13 03:13:43;;;;;;;16.80;12.00;;;;;;;16.96;60.22;99879.01;106241;1253;72679;-77
2023/09/13 03:16:12;;;;;;;14.10;12.30;;;;;;;16.91;60.33;99877.31;106119;1253;60461;-81
2023/09/13 03:18:39;;;;;;;19.70;12.20;;;;;;;16.87;60.50;99875.66;106451;1250;60536;-79
2023/09/13 03:21:10;;;;;;;19.60;13.70;;;;;;;16.84;60.73;99872.23;106296;1254;73697;-80
2023/09/13 03:23:38;;;;;;;14.30;12.10;;;;;;;16.80;60.74;99874.27;106689;1253;70187;-80
2023/09/13 03:26:15;;;;;;;15.20;12.00;;;;;;;16.78;60.83;99877.10;106160;1250;72505;-79
2023/09/13 03:28:44;;;;;;;14.60;12.60;;;;;;;16.76;61.01;99875.92;107259;1253;60335;-80
2023/09/13 03:31:18;;;;;;;17.50;14.00;;;;;;;16.73;61.17;99874.00;106847;1255;59107;-81
2023/09/13 03:33:46;;;;;;;18.00;13.30;;;;;;;16.69;61.36;99880.02;106139;1251;73723;-80
2023/09/13 03:36:14;;;;;;;16.30;12.30;;;;;;;16.65;61.62;99881.15;106445;1251;68886;-79
2023/09/13 03:38:43;;;;;;;15.60;12.50;;;;;;;16.62;61.64;99881.59;106317;1250;72662;-81
2023/09/13 03:41:18;;;;;;;16.80;11.50;;;;;;;16.60;61.85;99882.95;106273;1251;60443;-80
2023/09/13 03:43:45;;;;;;;18.70;14.00;;;;;;;16.59;62.10;99888.98;106166;1256;60436;-79
2023/09/13 03:46:12;;;;;;;16.30;12.50;;;;;;;16.56;62.27;99891.64;105765;1258;73723;-79
2023/09/13 03:48:40;;;;;;;13.70;11.90;;;;;;;16.53;62.29;99893.79;106128;1256;69755;-79
2023/09/13 03:51:07;;;;;;;17.00;12.30;;;;;;;16.50;62.42;99890.77;106141;1253;71402;-78
2023/09/13 03:53:34;;;;;;;15.20;12.60;;;;;;;16.49;62.56;99894.36;107014;1254;60543;-79
2023/09/13 03:56:02;;;;;;;17.30;12.40;;;;;;;16.47;62.73;99896.50;106824;1254;60537;-77
2023/09/13 03:58:29;;;;;;;16.70;10.70;;;;;;;16.46;62.71;99895.23;106677;1256;73838;-79
2023/09/13 04:00:56;;;;;;;16.50;11.30;;;;;;;16.45;62.79;99890.27;107028;1251;70160;-78
2023/09/13 04:03:24;;;;;;;15.10;11.50;;;;;;;16.43;62.69;99892.66;108213;1251;71347;-78
2023/09/13 04:05:53;;;;;;;15.30;11.80;;;;;;;16.42;62.63;99895.33;109273;1250;58914;-78
2023/09/13 04:08:20;;;;;;;16.30;11.70;;;;;;;16.42;62.44;99893.02;108806;1257;59385;-80
2023/09/13 04:10:47;;;;;;;12.70;10.90;;;;;;;16.43;62.34;99892.98;108503;1250;72346;-82
2023/09/13 04:13:15;;;;;;;19.40;12.10;;;;;;;16.44;62.13;99890.67;107499;1250;71134;-79
2023/09/13 04:15:43;;;;;;;16.40;11.70;;;;;;;16.49;62.01;99892.95;107507;1252;71808;-78
2023/09/13 04:18:11;;;;;;;12.60;11.00;;;;;;;16.51;61.96;99892.14;107160;1252;60511;-77
2023/09/13 04:20:38;;;;;;;15.70;11.00;;;;;;;16.56;61.70;99895.14;107007;1250;60328;-78
2023/09/13 04:23:05;;;;;;;18.80;11.70;;;;;;;16.61;61.65;99898.02;107092;1250;73572;-80
2023/09/13 04:25:32;;;;;;;15.30;11.60;;;;;;;16.64;61.55;99899.83;107828;1250;68406;-81
2023/09/13 04:27:59;;;;;;;18.00;11.00;;;;;;;16.69;61.33;99899.51;106970;1254;71171;-77
2023/09/13 04:30:26;;;;;;;18.00;11.90;;;;;;;16.74;61.23;99900.55;106550;1256;60564;-78
2023/09/13 04:32:54;;;;;;;16.10;11.30;;;;;;;16.76;61.06;99898.25;106592;1250;60498;-79
2023/09/13 04:35:21;;;;;;;13.40;10.80;;;;;;;16.79;60.91;99901.42;106664;1251;73738;-75
2023/09/13 04:37:50;;;;;;;13.50;10.70;;;;;;;16.83;60.71;99901.48;106196;1256;70527;-79
2023/09/13 04:40:16;;;;;;;13.70;10.90;;;;;;;16.86;60.64;99899.27;106505;1255;72669;-77
2023/09/13 04:42:50;;;;;;;15.00;11.30;;;;;;;16.88;60.66;99901.32;106448;1252;60469;-80
2023/09/13 04:45:18;;;;;;;15.60;11.60;;;;;;;16.91;60.69;99902.73;106374;1251;60458;-78
2023/09/13 04:47:44;;;;;;;13.50;10.50;;;;;;;16.95;60.56;99900.35;106240;1258;73785;-79
2023/09/13 04:50:11;;;;;;;15.30;11.30;;;;;;;16.97;60.57;99901.80;106145;1250;70431;-78
2023/09/13 04:52:39;;;;;;;13.50;10.60;;;;;;;17.03;60.44;99909.75;106233;1251;72515;-78
2023/09/13 04:55:06;;;;;;;19.20;11.20;;;;;;;17.10;60.15;99909.64;106143;1250;60540;-80
2023/09/13 04:57:33;;;;;;;19.20;11.10;;;;;;;17.18;59.99;99910.95;106175;1252;60533;-78
2023/09/13 05:00:00;;;;;;;14.00;10.50;;;;;;;17.25;59.76;99909.42;105939;1256;74328;-77
2023/09/13 05:02:27;;;;;;;14.50;10.50;;;;;;;17.33;59.53;99908.92;105998;1250;70284;-76
2023/09/13 05:04:54;;;;;;;14.20;11.20;;;;;;;17.38;59.24;99906.02;106122;1256;72483;-77
2023/09/13 05:07:20;;;;;;;13.70;11.10;;;;;;;17.44;59.19;99903.84;106516;1254;60532;-78
2023/09/13 05:09:47;;;;;;;17.20;10.90;;;;;;;17.52;59.15;99898.86;107196;1250;60396;-75
2023/09/13 05:12:14;;;;;;;17.30;10.10;;;;;;;17.62;58.90;99902.35;108346;1251;72549;-77
2023/09/13 05:14:42;;;;;;;16.90;11.30;;;;;;;17.71;58.58;99900.23;108291;1250;69067;-76
2023/09/13 05:17:11;;;;;;;12.70;10.50;;;;;;;17.78;58.41;99899.88;109254;1251;71838;-77
2023/09/13 05:19:37;;;;;;;15.70;10.60;;;;;;;17.87;58.13;99898.47;106401;1250;60467;-81
2023/09/13 05:22:04;;;;;;;15.70;11.40;;;;;;;17.98;57.83;99897.60;107118;1250;60449;-82
2023/09/13 05:24:31;;;;;;;14.20;9.60;;;;;;;18.06;57.52;99895.38;107185;1254;73752;-81
2023/09/13 05:26:57;;;;;;;14.50;10.50;;;;;;;18.14;57.22;99894.59;106278;1250;70124;-82
2023/09/13 05:29:24;;;;;;;16.70;10.40;;;;;;;18.21;57.13;99899.56;106402;1250;73191;-82
2023/09/13 05:31:51;;;;;;;13.50;9.00;;;;;;;18.29;56.89;99898.41;106038;1251;60526;-82
2023/09/13 05:34:17;;;;;;;15.70;9.90;;;;;;;18.37;56.49;99895.32;106062;1251;60517;-82
2023/09/13 05:36:44;;;;;;;14.50;9.70;;;;;;;18.46;56.17;99895.30;106190;1254;74270;-81
2023/09/13 05:39:11;;;;;;;13.60;9.30;;;;;;;18.54;55.66;99897.64;106101;1253;70232;-80
2023/09/13 05:41:38;;;;;;;13.20;8.70;;;;;;;18.62;55.48;99896.73;106200;1250;72565;-82
2023/09/13 05:44:08;;;;;;;11.70;9.30;;;;;;;18.69;55.01;99898.26;106120;1253;60475;-81
2023/09/13 05:46:35;;;;;;;13.70;8.70;;;;;;;18.74;54.84;99900.96;106076;1252;60375;-80
2023/09/13 05:49:02;;;;;;;11.90;8.40;;;;;;;18.79;54.22;99900.06;105969;1253;73986;-82
2023/09/13 05:51:30;;;;;;;12.30;9.30;;;;;;;18.83;53.97;99905.40;106072;1254;70079;-83
2023/09/13 05:53:57;;;;;;;14.70;8.60;;;;;;;18.85;53.86;99907.07;105807;1256;72463;-82
2023/09/13 05:56:23;;;;;;;14.20;9.00;;;;;;;18.89;53.86;99905.81;106236;1251;60472;-81
2023/09/13 05:58:54;;;;;;;16.90;9.20;;;;;;;18.97;53.65;99907.94;107074;1250;61910;-81
2023/09/13 06:01:22;;;;;;;13.50;8.70;;;;;;;19.02;53.58;99906.95;108233;1253;58549;-80
2023/09/13 06:03:49;;;;;;;17.10;9.30;;;;;;;19.12;53.47;99906.28;107116;1251;68712;-83
2023/09/13 06:06:16;;;;;;;11.60;9.70;;;;;;;19.22;53.54;99906.45;106374;1254;71884;-81
2023/09/13 06:08:43;;;;;;;14.70;9.20;;;;;;;19.32;53.20;99906.33;106425;1253;60476;-81
2023/09/13 06:11:09;;;;;;;16.00;9.70;;;;;;;19.39;52.97;99905.42;106600;1256;60399;-81
2023/09/13 06:16:11;;;;;;;15.30;9.70;;;;;;;19.54;52.93;99903.50;105649;1289;599460;-81
2023/09/13 06:18:39;;;;;;;14.70;9.40;;;;;;;19.60;52.94;99904.59;108172;1267;60066;-81
2023/09/13 06:21:07;;;;;;;19.90;10.80;;;;;;;19.70;52.96;99904.42;108276;1266;58839;-82
2023/09/13 06:23:36;;;;;;;13.10;9.50;;;;;;;19.83;52.76;99908.90;107049;1267;71006;-81
2023/09/13 06:26:04;;;;;;;13.20;9.30;;;;;;;19.94;52.49;99909.10;106181;1264;70074;-80
2023/09/13 06:28:31;;;;;;;18.40;11.40;;;;;;;20.03;52.35;99907.42;105548;1267;71113;-82
2023/09/13 06:31:00;;;;;;;17.90;10.50;;;;;;;20.10;52.07;99907.04;105231;1261;153457;-79
2023/09/13 06:33:31;;;;;;;15.60;9.50;;;;;;;20.16;52.00;99902.58;105220;1262;59381;-81
2023/09/13 06:36:01;;;;;;;16.30;11.00;;;;;;;20.22;51.82;99907.97;105267;1267;72005;-81
2023/09/13 06:38:29;;;;;;;15.90;10.70;;;;;;;20.28;51.76;99907.65;106046;1261;70266;-83
2023/09/13 06:40:57;;;;;;;17.30;10.60;;;;;;;20.34;51.79;99906.94;107106;1263;70827;-82
2023/09/13 06:43:25;;;;;;;19.40;12.70;;;;;;;20.42;51.75;99908.03;105455;1268;59679;-83
2023/09/13 06:45:55;;;;;;;14.40;10.20;;;;;;;20.52;51.54;99906.98;105477;1269;59548;-84
2023/09/13 06:48:33;;;;;;;18.40;10.50;;;;;;;20.59;51.24;99908.89;105322;1264;71086;-82
2023/09/13 06:51:03;;;;;;;19.40;10.20;;;;;;;20.63;50.80;99909.27;105540;1264;70651;-81
2023/09/13 06:53:33;;;;;;;15.90;11.10;;;;;;;20.68;50.92;99912.61;105538;1267;71436;-81
2023/09/13 06:56:02;;;;;;;14.90;10.30;;;;;;;20.73;50.75;99912.90;105846;1263;59736;-82
2023/09/13 06:58:35;;;;;;;18.60;10.40;;;;;;;20.77;50.80;99913.41;105705;1269;59628;-82
2023/09/13 07:01:05;;;;;;;16.70;11.10;;;;;;;20.82;50.35;99913.46;105753;1262;71498;-83
2023/09/13 07:03:52;;;;;;;13.70;9.50;;;;;;;20.88;50.46;99910.10;105778;1267;70201;-82
2023/09/13 07:06:27;;;;;;;17.00;10.60;;;;;;;20.96;50.37;99907.18;105731;1264;71907;-82
2023/09/13 07:08:55;;;;;;;17.30;10.40;;;;;;;21.05;50.04;99909.33;105519;1267;60087;-81
2023/09/13 07:11:23;;;;;;;17.40;10.40;;;;;;;21.13;50.12;99909.31;105618;1261;59813;-81
2023/09/13 07:13:50;;;;;;;11.20;9.10;;;;;;;21.21;49.72;99912.96;105658;1267;73000;-81
2023/09/13 07:16:17;;;;;;;19.50;9.30;;;;;;;21.28;48.89;99913.00;106034;1263;68983;-83
2023/09/13 07:18:45;;;;;;;16.30;9.40;;;;;;;21.33;48.26;99913.96;107662;1256;71476;-82
2023/09/13 07:21:13;;;;;;;22.30;10.90;;;;;;;21.38;48.22;99914.44;106906;1254;59793;-82
2023/09/13 07:23:40;;;;;;;14.50;9.20;;;;;;;21.46;48.07;99918.26;107999;1258;59180;-83
2023/09/13 07:26:08;;;;;;;15.90;9.70;;;;;;;21.54;47.80;99915.95;107927;1252;71814;-80
2023/09/13 07:28:36;;;;;;;16.10;10.40;;;;;;;21.62;47.67;99914.89;107266;1258;68898;-79
2023/09/13 07:31:08;;;;;;;14.60;9.50;;;;;;;21.68;47.72;99916.10;107836;1254;71601;-79
2023/09/13 07:33:35;;;;;;;11.70;8.80;;;;;;;21.75;47.36;99913.43;106043;1258;59727;-80
2023/09/13 07:36:04;;;;;;;15.80;8.90;;;;;;;21.82;47.40;99916.66;105765;1260;60278;-79
2023/09/13 07:38:32;;;;;;;15.60;8.30;;;;;;;21.89;47.32;99914.70;105999;1255;73076;-79
2023/09/13 07:41:00;;;;;;;16.90;9.70;;;;;;;21.93;47.09;99913.29;105923;1260;69005;-78
2023/09/13 07:43:28;;;;;;;18.20;8.90;;;;;;;22.00;47.10;99912.45;106203;1259;71437;-79
2023/09/13 07:45:55;;;;;;;20.10;9.70;;;;;;;22.07;46.50;99915.52;106183;1255;59746;-79
2023/09/13 07:48:23;;;;;;;16.90;10.10;;;;;;;22.13;46.38;99912.88;106082;1257;59717;-81
2023/09/13 07:50:50;;;;;;;13.70;9.10;;;;;;;22.19;46.28;99917.92;106087;1252;73165;-81
2023/09/13 07:53:18;;;;;;;15.50;8.30;;;;;;;22.29;46.16;99917.54;106001;1257;70351;-80
2023/09/13 07:55:45;;;;;;;15.50;9.00;;;;;;;22.40;45.75;99915.92;107055;1254;72850;-82
2023/09/13 07:58:13;;;;;;;13.60;8.20;;;;;;;22.50;45.48;99918.98;107114;1259;59733;-79
2023/09/13 08:00:40;;;;;;;14.50;9.00;;;;;;;22.60;45.03;99922.40;106192;1255;60567;-80
2023/09/13 08:03:08;;;;;;;10.90;7.80;;;;;;;22.67;44.87;99919.95;106039;1259;73042;-78
2023/09/13 08:05:36;;;;;;;16.80;8.10;;;;;;;22.77;44.81;99922.21;106179;1254;69941;-80
2023/09/13 08:08:03;;;;;;;14.60;9.20;;;;;;;22.89;44.75;99926.33;106138;1255;71655;-81
2023/09/13 08:10:31;;;;;;;12.80;7.90;;;;;;;23.00;44.68;99926.30;106055;1259;61271;-81
2023/09/13 08:12:59;;;;;;;10.40;7.70;;;;;;;23.12;43.91;99921.52;106953;1257;60072;-80
2023/09/13 08:15:26;;;;;;;12.20;7.90;;;;;;;23.24;43.45;99921.17;107341;1254;71637;-80
2023/09/13 08:18:13;;;;;;;11.20;7.30;;;;;;;23.38;42.95;99916.30;106343;1267;71492;-80
2023/09/13 08:20:53;;;;;;;12.30;7.10;;;;;;;23.47;42.92;99926.19;106137;1259;71858;-81
2023/09/13 08:23:28;;;;;;;12.70;7.30;;;;;;;23.58;42.48;99924.73;105907;1260;59624;-81
2023/09/13 08:25:55;;;;;;;9.80;6.90;;;;;;;23.65;42.31;99921.28;105820;1255;59656;-80
2023/09/13 08:28:38;;;;;;;;;;;;;;;23.77;42.27;99921.35;105993;1257;73144;-80
2023/09/13 08:31:06;;;;;;;8.70;7.30;;;;;;;23.91;42.26;99917.17;106697;1259;69489;-81
2023/09/13 08:33:33;;;;;;;17.80;8.20;;;;;;;24.09;42.21;99920.52;107888;1252;72714;-79
2023/09/13 08:36:01;;;;;;;10.00;7.70;;;;;;;24.30;41.38;99917.46;107929;1253;62410;-78
2023/09/13 08:38:28;;;;;;;10.00;7.20;;;;;;;24.44;41.10;99913.71;107694;1255;60085;-80
2023/09/13 08:40:56;;;;;;;12.00;7.40;;;;;;;24.56;40.69;99912.72;108223;1254;72029;-80
2023/09/13 08:43:23;;;;;;;15.90;7.80;;;;;;;24.67;40.56;99913.58;107739;1256;70958;-81
2023/09/13 08:45:51;;;;;;;10.60;7.00;;;;;;;24.81;40.62;99912.67;105994;1257;73014;-81
2023/09/13 08:48:19;;;;;;;11.80;7.20;;;;;;;24.97;40.67;99912.21;105903;1257;59813;-80
2023/09/13 08:50:48;;;;;;;14.30;8.00;;;;;;;25.16;40.57;99911.12;105935;1257;60167;-80
2023/09/13 08:53:16;;;;;;;15.40;8.00;;;;;;;25.42;40.22;99909.86;105937;1260;73032;-81
2023/09/13 08:55:43;;;;;;;13.30;7.40;;;;;;;25.72;39.68;99905.73;105764;1257;70414;-80
2023/09/13 08:58:11;;;;;;;11.90;7.70;;;;;;;26.00;39.01;99901.14;105704;1269;71938;-79
2023/09/13 09:00:39;;;;;;;11.40;7.60;;;;;;;26.28;38.90;99895.84;105864;1259;60124;-80
2023/09/13 09:03:07;;;;;;;15.00;7.30;;;;;;;26.58;38.19;99893.07;105499;1259;59717;-79
2023/09/13 09:05:35;;;;;;;9.20;6.50;;;;;;;26.92;37.33;99890.06;105552;1260;74055;-80
2023/09/13 09:08:02;;;;;;;9.50;6.50;;;;;;;27.33;37.10;99887.69;105715;1260;69450;-80
2023/09/13 09:10:31;;;;;;;7.40;6.10;;;;;;;27.90;36.01;99889.01;105978;1260;71173;-77
2023/09/13 09:12:59;;;;;;;8.50;6.20;;;;;;;28.51;35.37;99885.10;105964;1265;59746;-79
2023/09/13 09:15:27;;;;;;;9.60;6.50;;;;;;;29.12;34.17;99889.72;105960;1255;60157;-78
2023/09/13 09:17:55;;;;;;;7.20;6.40;;;;;;;29.66;33.82;99886.94;105454;1259;73019;-78
2023/09/13 09:20:29;;;;;;;10.00;7.10;;;;;;;30.21;33.53;99881.43;105926;1261;69239;-77
2023/09/13 09:22:57;;;;;;;11.40;7.10;;;;;;;30.86;32.69;99879.14;105915;1260;71433;-77
2023/09/13 09:25:25;;;;;;;12.50;7.00;;;;;;;31.47;31.65;99878.02;105951;1267;59727;-77
2023/09/13 09:27:52;;;;;;;9.60;7.30;;;;;;;31.85;31.15;99874.98;105856;1258;60214;-80
2023/09/13 09:30:31;;;;;;;9.70;6.80;;;;;;;32.29;31.36;99875.35;105881;1261;71740;-78
2023/09/13 09:33:03;;;;;;;10.80;7.50;;;;;;;32.90;30.71;99868.72;105925;1259;68891;-78
2023/09/13 09:35:31;;;;;;;8.50;7.20;;;;;;;33.46;30.27;99865.01;105933;1255;70979;-80
2023/09/13 09:37:59;;;;;;;9.90;6.70;;;;;;;33.94;29.96;99861.10;105996;1254;59825;-79
2023/09/13 09:40:37;;;;;;;9.40;6.30;;;;;;;34.35;28.84;99858.98;106178;1253;59922;-78
2023/09/13 09:43:05;;;;;;;7.50;5.50;;;;;;;34.70;28.27;99855.21;108145;1255;64298;-80
2023/09/13 09:45:32;;;;;;;7.20;6.30;;;;;;;35.03;27.54;99854.08;108194;1254;60248;-78
2023/09/13 09:48:00;;;;;;;12.10;6.30;;;;;;;35.19;27.32;99850.36;106874;1256;62536;-78
2023/09/13 09:50:31;;;;;;;6.60;5.90;;;;;;;35.52;27.26;99850.22;106261;1257;59692;-79
2023/09/13 09:52:59;;;;;;;8.00;6.30;;;;;;;35.96;26.93;99852.27;106808;1260;59615;-77
2023/09/13 09:55:27;;;;;;;10.60;6.60;;;;;;;36.34;26.51;99849.83;109078;1253;62915;-79
2023/09/13 09:57:54;;;;;;;10.20;6.20;;;;;;;36.66;26.67;99846.67;108852;1254;62310;-78
2023/09/13 10:00:22;;;;;;;8.30;6.40;;;;;;;37.03;26.28;99849.16;105694;1255;65827;-78
2023/09/13 10:02:50;;;;;;;8.80;6.30;;;;;;;37.44;25.63;99842.67;105699;1255;59729;-78
2023/09/13 10:05:18;;;;;;;9.20;5.60;;;;;;;37.75;25.09;99844.88;106010;1254;59630;-80
2023/09/13 10:07:56;;;;;;;7.20;6.00;;;;;;;38.09;24.84;99840.91;106051;1254;62998;-79
2023/09/13 10:10:33;;;;;;;8.00;6.10;;;;;;;38.60;24.73;99843.56;106121;1259;60288;-78
2023/09/13 10:13:03;;;;;;;8.00;6.10;;;;;;;39.04;24.55;99839.13;106983;1253;63769;-77
2023/09/13 10:15:31;;;;;;;8.20;6.20;;;;;;;39.30;24.26;99834.03;107409;1254;59135;-76
2023/09/13 10:18:01;;;;;;;9.40;6.10;;;;;;;39.53;23.71;99833.58;107451;1257;59104;-77
2023/09/13 10:20:29;;;;;;;8.70;6.10;;;;;;;39.58;23.72;99830.92;105908;1256;64278;-77
2023/09/13 10:22:57;;;;;;;10.00;5.90;;;;;;;39.48;23.71;99833.02;105713;1255;63619;-77
2023/09/13 10:25:25;;;;;;;8.60;5.50;;;;;;;39.46;23.64;99833.59;105453;1257;62566;-76
2023/09/13 10:27:54;;;;;;;11.40;6.10;;;;;;;39.40;23.59;99826.98;105584;1258;60555;-79
2023/09/13 10:30:25;;;;;;;6.80;5.10;;;;;;;39.49;23.40;99825.23;105940;1257;60533;-79
2023/09/13 10:32:56;;;;;;;9.70;6.10;;;;;;;39.91;22.91;99825.55;105430;1253;65948;-78
2023/09/13 10:35:27;;;;;;;9.20;5.40;;;;;;;40.43;22.51;99826.55;105866;1260;61545;-78
2023/09/13 10:38:01;;;;;;;6.60;6.00;;;;;;;40.77;21.79;99831.03;105817;1254;65751;-78
2023/09/13 10:40:40;;;;;;;6.10;4.90;;;;;;;40.71;21.84;99830.11;105455;1254;60483;-79
2023/09/13 10:43:08;;;;;;;10.20;5.50;;;;;;;40.71;21.71;99825.66;105911;1257;60338;-80
2023/09/13 10:45:40;;;;;;;7.00;5.80;;;;;;;40.93;21.69;99825.27;105955;1255;67526;-78
2023/09/13 10:48:08;;;;;;;7.00;5.40;;;;;;;41.10;21.48;99829.04;106113;1254;63453;-77
2023/09/13 10:50:37;;;;;;;6.90;5.00;;;;;;;41.08;21.37;99822.58;105981;1254;62509;-78
2023/09/13 10:53:05;;;;;;;9.00;5.10;;;;;;;40.90;21.65;99821.16;107789;1254;59619;-79
2023/09/13 10:55:33;;;;;;;9.30;4.80;;;;;;;41.00;21.42;99819.02;108175;1253;60256;-77
2023/09/13 10:58:03;;;;;;;5.80;4.80;;;;;;;41.32;21.13;99814.86;107585;1254;63649;-78
2023/09/13 11:00:34;;;;;;;7.90;4.00;;;;;;;41.71;20.88;99814.73;106056;1254;61367;-78
2023/09/13 11:03:02;;;;;;;9.90;4.00;;;;;;;42.18;20.55;99810.97;105963;1255;64079;-79
2023/09/13 11:05:31;;;;;;;9.90;4.40;;;;;;;42.59;19.92;99811.35;105546;1258;60425;-77
2023/09/13 11:07:59;;;;;;;5.70;4.30;;;;;;;42.87;19.74;99812.43;105863;1254;60433;-78
2023/09/13 11:10:30;;;;;;;6.30;4.20;;;;;;;42.86;19.71;99810.74;105928;1254;63965;-78
2023/09/13 11:13:10;;;;;;;5.30;4.00;;;;;;;42.86;19.90;99805.70;105691;1257;60443;-79
2023/09/13 11:15:48;;;;;;;7.90;4.80;;;;;;;43.12;19.53;99802.19;105809;1257;62693;-74
2023/09/13 11:18:16;;;;;;;6.10;3.80;;;;;;;43.22;19.50;99798.75;105935;1255;60446;-76
2023/09/13 11:20:43;;;;;;;5.90;4.10;;;;;;;43.46;19.27;99799.16;105911;1255;60986;-77
2023/09/13 11:23:14;;;;;;;7.00;3.50;;;;;;;43.65;19.11;99797.52;105852;1257;65160;-74
2023/09/13 11:26:02;;;;;;;5.20;4.10;;;;;;;43.78;18.94;99797.52;105388;1255;61380;-76